Terminal Aerodrome Forecast
Issued by NWS Key West, FL

Home | Current Version | Previous Version | Text Only | Print | Product List | Glossary On
Versions: 1 2 3 4 5 6 7 8 9 10 11 12 13 14 15 16 17 18 19 20 21 22 23 24 25 26 27 28 29 30 31
000
FTUS42 KKEY 300332 AAB
TAFEYW
TAF AMD
KEYW 300332Z 3004/3024 17010G15KT P6SM VCSH SCT018 SCT029 OVC200
      TEMPO 3004/3005 2SM SHRA BKN020 OVC070=

USA.gov is the U.S. government's official web portal to all federal, state and local government web resources and services.